Terminal Aerodrome Forecast
Issued by NWS

Home | Current Version | Previous Version | Text Only | Print | Product List | Glossary On
Versions: 1 2 3 4 5 6 7 8 9 10 11 12 13 14 15 16 17 18 19 20 21 22 23 24 25 26 27 28 29 30
000
FTUS45 KTWC 271732
TAFOLS
TAF
KOLS 271732Z 2718/2818 VRB04KT P6SM SCT090 BKN150
     FM272200 31009KT P6SM VCTS SCT080CB BKN120
      TEMPO 2723/2802 5SM -TSRA BKN070CB
     FM280300 15009KT P6SM VCSH SCT070 BKN100
     FM280500 10005KT P6SM BKN100
     FM280900 VRB04KT P6SM SCT100 BKN250=

USA.gov is the U.S. government's official web portal to all federal, state and local government web resources and services.